Flight Track Log - Related Links

Times and Time Zones

All times are in EDT time to prevent confusion due to time zone crossing. See the SWA1729 flight status page for this flight to view local times or setup timezone preferences in your user account.

Time Position Orientation Groundspeed Altitude Reporting Facility
EDT Latitude Longitude Course Direction KTS MPH feet Rate Location/Type
Thu 11:43:26 PM 29.6497 -95.2850 308° West 142 163 600  Level Houston Center
Thu 11:44:23 PM 29.6722 -95.3181 308° West 155 178 2,500 2,085 Climbing Houston Center
Thu 11:45:24 PM 29.7072 -95.3711 307° West 198 228 4,700 2,410 Climbing Houston Center
Thu 11:46:25 PM 29.7536 -95.4283 313° West 238 274 7,400 3,049 Climbing Houston Center
Thu 11:47:26 PM 29.8106 -95.4864 319° Northwest 262 302 10,900 2,852 Climbing Houston Center
Thu 11:48:27 PM 29.8736 -95.5456 321° Northwest 284 327 13,200 2,262 Climbing Houston Center
Thu 11:49:28 PM 29.8886 -95.6408 280° West 306 352 15,500 2,656 Climbing Houston Center
Thu 11:50:29 PM 29.8958 -95.7375 275° West 303 349 18,600 2,803 Climbing Houston Center
Thu 11:51:30 PM 29.9053 -95.8589 275° West 318 366 21,200 2,361 Climbing Houston Center
Thu 11:52:31 PM 29.9125 -95.9653 275° West 332 382 23,400 2,066 Climbing Houston Center
Thu 11:53:32 PM 29.9194 -96.0539 275° West 331 381 25,400 1,869 Climbing Houston Center
Thu 11:54:33 PM 29.9286 -96.1819 275° West 335 386 27,200 1,623 Climbing Houston Center
Thu 11:55:34 PM 29.9361 -96.2922 275° West 346 398 28,700 1,377 Climbing Houston Center
Thu 11:56:35 PM 29.9450 -96.4036 275° West 352 405 30,000 1,820 Climbing Houston Center
Thu 11:57:36 PM 29.9525 -96.5131 275° West 345 397 32,400 1,835 Climbing Houston Center
Thu 11:58:36 PM 29.9664 -96.6144 279° West 329 379 33,700 1,140 Climbing Houston Center
Thu 11:59:37 PM 29.9897 -96.7169 285° West 332 382 34,700 984 Climbing Houston Center
Fri 12:00:38 AM 30.0122 -96.8211 284° West 336 387 35,700 639 Climbing Houston Center
Fri 12:01:39 AM 30.0353 -96.9256 284° West 338 389 36,000 148 Climbing Houston Center
Fri 12:02:40 AM 30.0581 -97.0317 284° West 342 394 36,000  Level Houston Center
Fri 12:03:41 AM 30.0811 -97.1372 284° West 342 394 36,000  Level Houston Center
Fri 12:04:41 AM 30.1061 -97.2494 284° West 333 383 36,000  Level Houston Center
Fri 12:05:42 AM 30.1292 -97.3556 284° West 337 388 36,000  Level Houston Center
Fri 12:06:43 AM 30.1517 -97.4628 284° West 339 390 36,000  Level Houston Center
Fri 12:07:44 AM 30.1742 -97.5678 284° West 336 387 36,000  Level Houston Center
Fri 12:08:44 AM 30.1975 -97.6744 284° West 336 387 36,000  Level Houston Center
Fri 12:09:45 AM 30.2197 -97.7786 284° West 334 384 36,000  Level Houston Center
Fri 12:10:46 AM 30.2428 -97.8875 284° West 331 381 36,000  Level Houston Center
Fri 12:11:47 AM 30.2667 -97.9981 284° West 330 380 36,000  Level Houston Center
Fri 12:12:47 AM 30.2869 -98.1003 283° West 327 376 36,000  Level Houston Center
Fri 12:13:48 AM 30.3089 -98.2025 284° West 328 377 36,000  Level Houston Center
Fri 12:14:49 AM 30.3292 -98.2969 284° West 326 375 36,000  Level Houston Center
Fri 12:15:50 AM 30.3503 -98.4003 283° West 326 375 36,000  Level Houston Center
Fri 12:16:50 AM 30.3714 -98.5042 283° West 327 376 36,000  Level Houston Center
Fri 12:17:51 AM 30.3928 -98.6064 284° West 324 373 36,000  Level Houston Center
Fri 12:18:52 AM 30.4133 -98.7103 283° West 327 376 36,000  Level Houston Center
Fri 12:19:53 AM 30.4347 -98.8117 284° West 323 372 36,000  Level Houston Center
Fri 12:20:53 AM 30.4569 -98.9169 284° West 332 382 36,000  Level Houston Center
Fri 12:21:54 AM 30.4781 -99.0208 283° West 329 379 36,000  Level Houston Center
Fri 12:22:55 AM 30.5006 -99.1272 284° West 330 380 36,000  Level Houston Center
Fri 12:23:55 AM 30.5211 -99.2300 283° West 329 379 36,000  Level Houston Center
Fri 12:24:56 AM 30.5419 -99.3322 283° West 327 376 36,000  Level Houston Center
Fri 12:25:57 AM 30.5614 -99.4336 283° West 324 373 36,000  Level Houston Center
Fri 12:26:58 AM 30.5808 -99.5339 283° West 321 369 36,000  Level Houston Center
Fri 12:27:58 AM 30.6017 -99.6339 284° West 320 368 36,000  Level Houston Center
Fri 12:28:59 AM 30.6211 -99.7333 283° West 319 367 36,000  Level Houston Center
Fri 12:30:00 AM 30.6400 -99.8325 283° West 317 365 36,000  Level Houston Center
Fri 12:31:00 AM 30.6597 -99.9333 283° West 320 368 36,000  Level Houston Center
Fri 12:32:01 AM 30.6836 -100.0528 283° West 319 367 36,000  Level Houston Center
Fri 12:33:02 AM 30.7028 -100.1539 282° West 321 369 36,000 -50 Level Houston Center
Fri 12:34:02 AM 30.7225 -100.2550 283° West 323 372 35,900  Descending Houston Center
Fri 12:35:03 AM 30.7411 -100.3561 282° West 324 373 36,000 49 Climbing Houston Center
Fri 12:36:04 AM 30.7606 -100.4586 282° West 328 377 36,000  Level Houston Center
Fri 12:37:05 AM 30.7803 -100.5625 282° West 334 384 36,000  Level Houston Center
Fri 12:38:05 AM 30.7992 -100.6644 282° West 328 377 36,000 -50 Level Houston Center
Fri 12:39:06 AM 30.8197 -100.7664 283° West 325 374 35,900  Descending Houston Center
Fri 12:40:07 AM 30.8383 -100.8722 282° West 333 383 36,000 50 Climbing Houston Center
Fri 12:41:07 AM 30.8575 -100.9728 283° West 324 373 36,000  Level Houston Center
Fri 12:42:08 AM 30.8756 -101.0767 281° West 330 380 36,000  Level Houston Center
Fri 12:43:09 AM 30.8967 -101.1792 284° West 330 380 36,000  Level Houston Center
Fri 12:44:09 AM 30.9147 -101.2811 282° West 324 373 36,000  Level Houston Center
Fri 12:45:02 AM 30.9325 -101.3886 281° West 327 376 36,000  Level Albuquerque Center
Fri 12:46:02 AM 30.9519 -101.4917 282° West 326 375 36,000  Level Albuquerque Center
Fri 12:47:03 AM 30.9708 -101.5939 282° West 325 374 36,000  Level Albuquerque Center
Fri 12:48:04 AM 30.9889 -101.6969 282° West 324 373 36,000  Level Albuquerque Center
Fri 12:49:05 AM 31.0081 -101.7981 282° West 323 372 36,000  Level Albuquerque Center
Fri 12:50:06 AM 31.0253 -101.9008 281° West 322 371 36,000  Level Albuquerque Center
Fri 12:51:07 AM 31.0436 -102.0056 282° West 332 382 36,000  Level Albuquerque Center
Fri 12:52:08 AM 31.0622 -102.1092 282° West 328 377 36,000  Level Albuquerque Center
Fri 12:53:08 AM 31.0808 -102.2122 282° West 326 375 36,000  Level Albuquerque Center
Fri 12:54:09 AM 31.0994 -102.3167 282° West 327 376 36,000  Level Albuquerque Center
Fri 12:55:10 AM 31.1175 -102.4206 282° West 327 376 36,000  Level Albuquerque Center
Fri 12:56:11 AM 31.1350 -102.5264 281° West 330 380 36,000  Level Albuquerque Center
Fri 12:57:12 AM 31.1542 -102.6361 282° West 325 374 36,000  Level Albuquerque Center
Fri 12:58:12 AM 31.1728 -102.7433 281° West 333 383 36,000  Level Albuquerque Center
Fri 12:59:13 AM 31.1911 -102.8508 281° West 336 387 36,000  Level Albuquerque Center
Fri 01:00:14 AM 31.2089 -102.9561 281° West 333 383 36,000  Level Albuquerque Center
Fri 01:01:15 AM 31.2267 -103.0622 281° West 333 383 36,000  Level Albuquerque Center
Fri 01:02:16 AM 31.2439 -103.1694 281° West 335 386 36,000  Level Albuquerque Center
Fri 01:03:17 AM 31.2619 -103.2772 281° West 336 387 36,000  Level Albuquerque Center
Fri 01:04:17 AM 31.2803 -103.3850 281° West 337 388 36,000  Level Albuquerque Center
Fri 01:05:18 AM 31.3064 -103.5144 283° West 340 391 36,000  Level Albuquerque Center
Fri 01:06:19 AM 31.3256 -103.6217 282° West 338 389 36,000  Level Albuquerque Center
Fri 01:07:20 AM 31.3467 -103.7306 283° West 341 392 36,000  Level Albuquerque Center
Fri 01:08:21 AM 31.3689 -103.8406 283° West 342 394 36,000  Level Albuquerque Center
Fri 01:09:22 AM 31.3900 -103.9489 279° West 342 394 36,000  Level Albuquerque Center
Fri 01:10:00 AM 31.3935 -104.0144 279° West  Level FlightAware Approximate
Fri 01:12:24 AM 31.4553 -104.2747 283° West 344 396 36,000  Level Albuquerque Center
Fri 01:13:25 AM 31.4750 -104.3831 282° West 343 395 35,900  Descending Albuquerque Center
Fri 01:14:26 AM 31.4944 -104.4903 282° West 341 392 36,000 50 Climbing Albuquerque Center
Fri 01:15:26 AM 31.5144 -104.5972 282° West 340 391 36,000  Level Albuquerque Center
Fri 01:16:27 AM 31.5344 -104.7036 282° West 338 389 36,000 -1,131 Level Albuquerque Center
Fri 01:17:28 AM 31.5533 -104.8089 282° West 336 387 33,700 -2,361 Descending Albuquerque Center
Fri 01:18:29 AM 31.5719 -104.9128 282° West 331 381 31,200 -2,331 Descending Albuquerque Center
Fri 01:19:29 AM 31.5911 -105.0178 282° West 332 382 29,000 -2,430 Descending Albuquerque Center
Fri 01:20:30 AM 31.6153 -105.1442 283° West 333 383 26,300 -2,410 Descending Albuquerque Center
Fri 01:21:31 AM 31.6333 -105.2503 281° West 334 384 24,100 -2,132 Descending Albuquerque Center
Fri 01:22:31 AM 31.6508 -105.3564 281° West 309 356 22,000 -2,033 Descending Albuquerque Center
Fri 01:23:32 AM 31.6683 -105.4494 282° West 291 335 20,000 -1,967 Descending Albuquerque Center
Fri 01:24:33 AM 31.6864 -105.5447 283° West 297 342 18,000 -1,934 Descending Albuquerque Center
Fri 01:25:33 AM 31.7028 -105.6431 281° West 307 353 16,100 -1,934 Descending Albuquerque Center
Fri 01:26:34 AM 31.7206 -105.7386 282° West 302 348 14,100 -1,983 Descending Albuquerque Center
Fri 01:27:34 AM 31.7364 -105.8344 281° West 298 343 12,100 -1,934 Descending Albuquerque Center
Fri 01:28:35 AM 31.7544 -105.9325 282° West 290 334 10,200 -1,426 Descending Albuquerque Center
Fri 01:29:36 AM 31.7683 -106.0189 281° West 262 302 9,200 -893 Descending Albuquerque Center
Fri 01:30:36 AM 31.7819 -106.0931 282° West 231 266 8,400 -1,140 Descending Albuquerque Center
Fri 01:31:37 AM 31.7936 -106.1675 280° West 227 261 6,900 -992 Descending Albuquerque Center
Fri 01:32:37 AM 31.7936 -106.2375 270° West 215 247 6,400 -793 Descending Albuquerque Center
Fri 01:33:38 AM 31.7969 -106.2917 274° West 161 185 5,300 -984 Descending Albuquerque Center
Fri 01:34:39 AM 31.7994 -106.3411 273° West 141 162 4,400 -885 Descending Albuquerque Center
Fri 01:36:00 AM 31.8000 -106.3667 270° West  Level FlightAware Approximate
Fri 01:43:00 AM 31.8072 -106.3764 270° West  Level Estimated
Fri 01:44:00 AM 31.8072 -106.3764 270° West  Level Estimated
Fri 01:45:00 AM 31.8072 -106.3764 270° West  Level Estimated
Fri 01:46:00 AM 31.8072 -106.3764 270° West  Level Estimated

Login

Don't have an account? Register now (free) for customized features, flight alerts, and more!